sensor_id;sensor_type;location;lat;lon;timestamp;pressure;altitude;pressure_sealevel;temperature;humidity
68654;BME280;55636;51.108;13.622;2022-08-01T00:00:27;100062.63;;;23.31;40.70
68654;BME280;55636;51.108;13.622;2022-08-01T00:01:29;100057.34;;;23.29;40.51
68654;BME280;55636;51.108;13.622;2022-08-01T00:02:32;100056.84;;;23.27;40.71
68654;BME280;55636;51.108;13.622;2022-08-01T00:03:34;100050.41;;;23.27;40.89
68654;BME280;55636;51.108;13.622;2022-08-01T00:04:36;100043.94;;;23.26;40.58
68654;BME280;55636;51.108;13.622;2022-08-01T00:05:39;100050.75;;;23.25;40.55
68654;BME280;55636;51.108;13.622;2022-08-01T00:06:42;100055.56;;;23.25;40.61
68654;BME280;55636;51.108;13.622;2022-08-01T00:07:44;100050.28;;;23.23;40.77
68654;BME280;55636;51.108;13.622;2022-08-01T00:08:46;100049.47;;;23.22;40.87
68654;BME280;55636;51.108;13.622;2022-08-01T00:09:49;100047.00;;;23.21;40.79
68654;BME280;55636;51.108;13.622;2022-08-01T00:10:51;100047.38;;;23.19;40.88
68654;BME280;55636;51.108;13.622;2022-08-01T00:11:53;100048.19;;;23.20;40.96
68654;BME280;55636;51.108;13.622;2022-08-01T00:13:00;100046.06;;;23.17;41.08
68654;BME280;55636;51.108;13.622;2022-08-01T00:14:03;100047.72;;;23.18;41.17
68654;BME280;55636;51.108;13.622;2022-08-01T00:15:07;100044.44;;;23.16;41.32
68654;BME280;55636;51.108;13.622;2022-08-01T00:16:10;100040.00;;;23.15;41.17
68654;BME280;55636;51.108;13.622;2022-08-01T00:17:12;100040.31;;;23.13;41.33
68654;BME280;55636;51.108;13.622;2022-08-01T00:18:15;100036.69;;;23.13;41.47
68654;BME280;55636;51.108;13.622;2022-08-01T00:19:17;100032.22;;;23.12;41.52
68654;BME280;55636;51.108;13.622;2022-08-01T00:20:19;100040.69;;;23.12;41.62
68654;BME280;55636;51.108;13.622;2022-08-01T00:21:21;100035.41;;;23.10;41.53
68654;BME280;55636;51.108;13.622;2022-08-01T00:22:24;100039.03;;;23.11;41.51
68654;BME280;55636;51.108;13.622;2022-08-01T00:23:26;100032.94;;;23.09;41.33
68654;BME280;55636;51.108;13.622;2022-08-01T00:24:29;100039.38;;;23.09;41.77
68654;BME280;55636;51.108;13.622;2022-08-01T00:25:31;100029.66;;;23.07;41.42
68654;BME280;55636;51.108;13.622;2022-08-01T00:26:35;100040.91;;;23.07;41.54
68654;BME280;55636;51.108;13.622;2022-08-01T00:27:40;100042.09;;;23.05;41.81
68654;BME280;55636;51.108;13.622;2022-08-01T00:28:43;100044.09;;;23.05;41.58
68654;BME280;55636;51.108;13.622;2022-08-01T00:29:45;100041.63;;;23.03;41.60
68654;BME280;55636;51.108;13.622;2022-08-01T00:31:07;100036.38;;;23.02;41.47
68654;BME280;55636;51.108;13.622;2022-08-01T00:32:09;100033.88;;;23.00;41.71
68654;BME280;55636;51.108;13.622;2022-08-01T00:33:12;100039.50;;;23.00;41.82
68654;BME280;55636;51.108;13.622;2022-08-01T00:34:14;100040.72;;;22.99;41.65
68654;BME280;55636;51.108;13.622;2022-08-01T00:35:16;100047.50;;;22.98;41.60
68654;BME280;55636;51.108;13.622;2022-08-01T00:36:18;100044.22;;;22.96;41.75
68654;BME280;55636;51.108;13.622;2022-08-01T00:37:21;100032.50;;;22.94;41.69
68654;BME280;55636;51.108;13.622;2022-08-01T00:38:23;100038.13;;;22.94;41.83
68654;BME280;55636;51.108;13.622;2022-08-01T00:39:27;100040.47;;;22.92;41.81
68654;BME280;55636;51.108;13.622;2022-08-01T00:40:29;100037.19;;;22.90;41.99
68654;BME280;55636;51.108;13.622;2022-08-01T00:41:31;100039.53;;;22.88;41.73
68654;BME280;55636;51.108;13.622;2022-08-01T00:42:34;100042.34;;;22.88;41.68
68654;BME280;55636;51.108;13.622;2022-08-01T00:43:42;100045.53;;;22.86;41.52
68654;BME280;55636;51.108;13.622;2022-08-01T00:44:44;100046.19;;;22.83;41.74
68654;BME280;55636;51.108;13.622;2022-08-01T00:45:47;100043.72;;;22.82;41.92
68654;BME280;55636;51.108;13.622;2022-08-01T00:46:49;100041.25;;;22.80;41.77
68654;BME280;55636;51.108;13.622;2022-08-01T00:47:51;100040.78;;;22.78;41.83
68654;BME280;55636;51.108;13.622;2022-08-01T00:48:58;100044.78;;;22.77;41.95
68654;BME280;55636;51.108;13.622;2022-08-01T00:50:04;100042.66;;;22.74;41.90
68654;BME280;55636;51.108;13.622;2022-08-01T00:51:07;100042.19;;;22.72;41.99
68654;BME280;55636;51.108;13.622;2022-08-01T00:52:10;100044.53;;;22.70;42.16
68654;BME280;55636;51.108;13.622;2022-08-01T00:53:13;100046.91;;;22.68;42.00
68654;BME280;55636;51.108;13.622;2022-08-01T00:54:20;100045.25;;;22.67;41.83
68654;BME280;55636;51.108;13.622;2022-08-01T00:55:22;100046.78;;;22.64;42.08
68654;BME280;55636;51.108;13.622;2022-08-01T00:56:25;100042.66;;;22.62;42.03
68654;BME280;55636;51.108;13.622;2022-08-01T00:57:29;100043.00;;;22.60;41.92
68654;BME280;55636;51.108;13.622;2022-08-01T00:58:52;100046.50;;;22.57;42.13
68654;BME280;55636;51.108;13.622;2022-08-01T00:59:56;100044.88;;;22.56;42.06
68654;BME280;55636;51.108;13.622;2022-08-01T01:00:59;100037.94;;;22.53;42.17
68654;BME280;55636;51.108;13.622;2022-08-01T01:02:04;100038.66;;;22.50;42.36
68654;BME280;55636;51.108;13.622;2022-08-01T01:03:16;100036.19;;;22.49;42.29
68654;BME280;55636;51.108;13.622;2022-08-01T01:04:18;100040.53;;;22.46;42.25
68654;BME280;55636;51.108;13.622;2022-08-01T01:05:21;100033.25;;;22.45;42.21
68654;BME280;55636;51.108;13.622;2022-08-01T01:08:22;100037.44;;;22.39;42.19
68654;BME280;55636;51.108;13.622;2022-08-01T01:10:37;100034.88;;;22.34;42.41
68654;BME280;55636;51.108;13.622;2022-08-01T01:12:07;100028.78;;;22.32;42.29
68654;BME280;55636;51.108;13.622;2022-08-01T01:13:40;100035.09;;;22.29;42.09
68654;BME280;55636;51.108;13.622;2022-08-01T01:15:06;100048.69;;;22.27;42.22
68654;BME280;55636;51.108;13.622;2022-08-01T01:16:12;100046.25;;;22.25;42.54
68654;BME280;55636;51.108;13.622;2022-08-01T01:17:19;100035.66;;;22.22;42.49
68654;BME280;55636;51.108;13.622;2022-08-01T01:18:49;100036.38;;;22.19;42.46
68654;BME280;55636;51.108;13.622;2022-08-01T01:19:55;100035.06;;;22.16;42.71
68654;BME280;55636;51.108;13.622;2022-08-01T01:21:35;100045.00;;;22.14;42.37
68654;BME280;55636;51.108;13.622;2022-08-01T01:22:53;100042.53;;;22.12;42.85
68654;BME280;55636;51.108;13.622;2022-08-01T01:24:26;100043.22;;;22.09;42.66
68654;BME280;55636;51.108;13.622;2022-08-01T01:27:38;100038.66;;;22.04;42.76
68654;BME280;55636;51.108;13.622;2022-08-01T01:30:05;100029.63;;;21.99;43.18
68654;BME280;55636;51.108;13.622;2022-08-01T01:31:09;100030.78;;;21.98;43.42
68654;BME280;55636;51.108;13.622;2022-08-01T01:32:23;100027.47;;;21.96;43.15
68654;BME280;55636;51.108;13.622;2022-08-01T01:33:33;100037.91;;;21.95;43.46
68654;BME280;55636;51.108;13.622;2022-08-01T01:34:49;100032.16;;;21.92;43.28
68654;BME280;55636;51.108;13.622;2022-08-01T01:35:57;100034.97;;;21.92;43.35
68654;BME280;55636;51.108;13.622;2022-08-01T01:37:03;100034.16;;;21.91;43.62
68654;BME280;55636;51.108;13.622;2022-08-01T01:38:33;100029.22;;;21.88;43.38
68654;BME280;55636;51.108;13.622;2022-08-01T01:39:37;100030.38;;;21.87;43.42
68654;BME280;55636;51.108;13.622;2022-08-01T01:40:47;100031.22;;;21.87;43.77
68654;BME280;55636;51.108;13.622;2022-08-01T01:41:51;100026.25;;;21.84;43.47
68654;BME280;55636;51.108;13.622;2022-08-01T01:42:56;100031.06;;;21.84;43.78
68654;BME280;55636;51.108;13.622;2022-08-01T01:44:00;100021.81;;;21.83;44.01
68654;BME280;55636;51.108;13.622;2022-08-01T01:45:03;100023.78;;;21.83;43.82
68654;BME280;55636;51.108;13.622;2022-08-01T01:46:09;100024.16;;;21.81;43.81
68654;BME280;55636;51.108;13.622;2022-08-01T01:47:13;100028.97;;;21.81;43.79
68654;BME280;55636;51.108;13.622;2022-08-01T01:48:19;100025.66;;;21.79;43.83
68654;BME280;55636;51.108;13.622;2022-08-01T01:49:25;100022.03;;;21.78;43.89
68654;BME280;55636;51.108;13.622;2022-08-01T01:50:29;100024.84;;;21.78;44.04
68654;BME280;55636;51.108;13.622;2022-08-01T01:51:34;100026.00;;;21.77;43.89
68654;BME280;55636;51.108;13.622;2022-08-01T01:52:38;100028.00;;;21.77;43.85
68654;BME280;55636;51.108;13.622;2022-08-01T01:53:43;100021.91;;;21.74;44.01
68654;BME280;55636;51.108;13.622;2022-08-01T01:54:49;100021.53;;;21.76;43.86
68654;BME280;55636;51.108;13.622;2022-08-01T01:55:53;100019.09;;;21.74;43.87
68654;BME280;55636;51.108;13.622;2022-08-01T01:56:59;100020.25;;;21.73;43.96
68654;BME280;55636;51.108;13.622;2022-08-01T01:58:03;100019.91;;;21.75;43.95
68654;BME280;55636;51.108;13.622;2022-08-01T01:59:07;100019.44;;;21.73;43.95
68654;BME280;55636;51.108;13.622;2022-08-01T02:00:11;100018.59;;;21.72;44.19
68654;BME280;55636;51.108;13.622;2022-08-01T02:01:14;100019.44;;;21.73;44.03
68654;BME280;55636;51.108;13.622;2022-08-01T02:02:38;100019.78;;;21.71;43.97
68654;BME280;55636;51.108;13.622;2022-08-01T02:03:42;100015.31;;;21.70;43.83
68654;BME280;55636;51.108;13.622;2022-08-01T02:04:46;100013.31;;;21.71;44.02
68654;BME280;55636;51.108;13.622;2022-08-01T02:05:51;100018.94;;;21.71;44.25
68654;BME280;55636;51.108;13.622;2022-08-01T02:06:55;100022.09;;;21.69;44.17
68654;BME280;55636;51.108;13.622;2022-08-01T02:08:00;100018.50;;;21.69;43.94
68654;BME280;55636;51.108;13.622;2022-08-01T02:09:04;100026.09;;;21.68;44.26
68654;BME280;55636;51.108;13.622;2022-08-01T02:10:10;100013.19;;;21.67;44.37
68654;BME280;55636;51.108;13.622;2022-08-01T02:11:13;100018.00;;;21.67;44.01
68654;BME280;55636;51.108;13.622;2022-08-01T02:12:23;100018.81;;;21.67;44.11
68654;BME280;55636;51.108;13.622;2022-08-01T02:13:26;100022.81;;;21.66;44.47
68654;BME280;55636;51.108;13.622;2022-08-01T02:14:29;100020.31;;;21.65;44.22
68654;BME280;55636;51.108;13.622;2022-08-01T02:15:35;100023.97;;;21.65;44.22
68654;BME280;55636;51.108;13.622;2022-08-01T02:17:00;100023.97;;;21.65;44.15
68654;BME280;55636;51.108;13.622;2022-08-01T02:18:07;100026.78;;;21.65;44.51
68654;BME280;55636;51.108;13.622;2022-08-01T02:19:11;100026.28;;;21.63;44.41
68654;BME280;55636;51.108;13.622;2022-08-01T02:20:13;100031.91;;;21.63;44.20
68654;BME280;55636;51.108;13.622;2022-08-01T02:21:23;100037.53;;;21.63;44.36
68654;BME280;55636;51.108;13.622;2022-08-01T02:22:30;100031.09;;;21.63;44.56
68654;BME280;55636;51.108;13.622;2022-08-01T02:23:34;100039.53;;;21.63;44.50
68654;BME280;55636;51.108;13.622;2022-08-01T02:24:47;100034.72;;;21.63;44.28
68654;BME280;55636;51.108;13.622;2022-08-01T02:25:53;100033.41;;;21.61;44.49
68654;BME280;55636;51.108;13.622;2022-08-01T02:27:15;100039.88;;;21.61;44.67
68654;BME280;55636;51.108;13.622;2022-08-01T02:28:25;100037.06;;;21.61;44.34
68654;BME280;55636;51.108;13.622;2022-08-01T02:29:43;100043.84;;;21.60;44.38
68654;BME280;55636;51.108;13.622;2022-08-01T02:30:48;100043.84;;;21.60;44.65
68654;BME280;55636;51.108;13.622;2022-08-01T02:31:53;100043.84;;;21.60;44.55
68654;BME280;55636;51.108;13.622;2022-08-01T02:33:03;100049.47;;;21.60;44.63
68654;BME280;55636;51.108;13.622;2022-08-01T02:34:18;100036.56;;;21.59;44.49
68654;BME280;55636;51.108;13.622;2022-08-01T02:35:27;100040.19;;;21.60;44.64
68654;BME280;55636;51.108;13.622;2022-08-01T02:36:33;100034.94;;;21.58;44.95
68654;BME280;55636;51.108;13.622;2022-08-01T02:37:38;100035.78;;;21.59;44.89
68654;BME280;55636;51.108;13.622;2022-08-01T02:38:46;100041.38;;;21.59;44.83
68654;BME280;55636;51.108;13.622;2022-08-01T02:39:54;100047.00;;;21.59;44.80
68654;BME280;55636;51.108;13.622;2022-08-01T02:41:00;100050.16;;;21.57;44.93
68654;BME280;55636;51.108;13.622;2022-08-01T02:42:08;100050.97;;;21.57;44.85
68654;BME280;55636;51.108;13.622;2022-08-01T02:43:15;100046.16;;;21.58;44.87
68654;BME280;55636;51.108;13.622;2022-08-01T02:44:25;100040.53;;;21.58;45.45
68654;BME280;55636;51.108;13.622;2022-08-01T02:45:29;100039.72;;;21.57;45.21
68654;BME280;55636;51.108;13.622;2022-08-01T02:46:38;100044.53;;;21.57;45.55
68654;BME280;55636;51.108;13.622;2022-08-01T02:47:43;100048.50;;;21.56;45.77
68654;BME280;55636;51.108;13.622;2022-08-01T02:48:47;100044.06;;;21.55;45.50
68654;BME280;55636;51.108;13.622;2022-08-01T02:49:52;100049.66;;;21.55;45.55
68654;BME280;55636;51.108;13.622;2022-08-01T02:50:57;100045.22;;;21.54;45.85
68654;BME280;55636;51.108;13.622;2022-08-01T02:52:07;100044.41;;;21.53;45.84
68654;BME280;55636;51.108;13.622;2022-08-01T02:53:12;100046.88;;;21.55;45.97
68654;BME280;55636;51.108;13.622;2022-08-01T02:54:16;100037.94;;;21.53;46.28
68654;BME280;55636;51.108;13.622;2022-08-01T02:55:20;100040.75;;;21.53;46.20
68654;BME280;55636;51.108;13.622;2022-08-01T02:56:25;100044.75;;;21.52;46.11
68654;BME280;55636;51.108;13.622;2022-08-01T02:57:37;100040.28;;;21.51;46.17
68654;BME280;55636;51.108;13.622;2022-08-01T02:58:54;100042.25;;;21.50;46.24
68654;BME280;55636;51.108;13.622;2022-08-01T02:59:58;100041.44;;;21.50;46.39
68654;BME280;55636;51.108;13.622;2022-08-01T03:01:04;100035.81;;;21.50;46.33
68654;BME280;55636;51.108;13.622;2022-08-01T03:02:09;100040.63;;;21.49;46.64
68654;BME280;55636;51.108;13.622;2022-08-01T03:03:15;100040.63;;;21.49;46.76
68654;BME280;55636;51.108;13.622;2022-08-01T03:04:19;100043.44;;;21.49;46.71
68654;BME280;55636;51.108;13.622;2022-08-01T03:05:23;100051.03;;;21.49;47.42
68654;BME280;55636;51.108;13.622;2022-08-01T03:06:26;100041.81;;;21.48;47.73
68654;BME280;55636;51.108;13.622;2022-08-01T03:07:31;100043.75;;;21.48;47.72
68654;BME280;55636;51.108;13.622;2022-08-01T03:08:42;100047.75;;;21.47;47.84
68654;BME280;55636;51.108;13.622;2022-08-01T03:09:46;100043.31;;;21.46;47.92
68654;BME280;55636;51.108;13.622;2022-08-01T03:10:50;100040.50;;;21.46;47.86
68654;BME280;55636;51.108;13.622;2022-08-01T03:11:56;100045.63;;;21.44;48.26
68654;BME280;55636;51.108;13.622;2022-08-01T03:13:00;100047.94;;;21.41;48.01
68654;BME280;55636;51.108;13.622;2022-08-01T03:14:06;100044.28;;;21.41;48.23
68654;BME280;55636;51.108;13.622;2022-08-01T03:15:10;100047.44;;;21.39;47.96
68654;BME280;55636;51.108;13.622;2022-08-01T03:16:14;100046.94;;;21.37;47.80
68654;BME280;55636;51.108;13.622;2022-08-01T03:17:19;100046.94;;;21.37;47.88
68654;BME280;55636;51.108;13.622;2022-08-01T03:18:24;100042.88;;;21.35;47.77
68654;BME280;55636;51.108;13.622;2022-08-01T03:19:29;100047.66;;;21.34;47.84
68654;BME280;55636;51.108;13.622;2022-08-01T03:20:33;100046.00;;;21.33;47.84
68654;BME280;55636;51.108;13.622;2022-08-01T03:21:37;100044.38;;;21.32;47.87
68654;BME280;55636;51.108;13.622;2022-08-01T03:22:42;100037.44;;;21.30;48.25
68654;BME280;55636;51.108;13.622;2022-08-01T03:23:45;100046.69;;;21.30;48.00
68654;BME280;55636;51.108;13.622;2022-08-01T03:24:57;100045.03;;;21.29;48.02
68654;BME280;55636;51.108;13.622;2022-08-01T03:26:01;100048.19;;;21.28;47.97
68654;BME280;55636;51.108;13.622;2022-08-01T03:27:04;100042.91;;;21.26;48.31
68654;BME280;55636;51.108;13.622;2022-08-01T03:28:08;100045.72;;;21.26;48.07
68654;BME280;55636;51.108;13.622;2022-08-01T03:29:19;100049.69;;;21.25;48.02
68654;BME280;55636;51.108;13.622;2022-08-01T03:30:25;100051.69;;;21.24;48.14
68654;BME280;55636;51.108;13.622;2022-08-01T03:31:28;100052.00;;;21.23;47.95
68654;BME280;55636;51.108;13.622;2022-08-01T03:32:33;100048.38;;;21.22;48.13
68654;BME280;55636;51.108;13.622;2022-08-01T03:33:35;100049.53;;;21.21;48.20
68654;BME280;55636;51.108;13.622;2022-08-01T03:34:38;100039.81;;;21.19;48.36
68654;BME280;55636;51.108;13.622;2022-08-01T03:35:46;100042.63;;;21.19;48.12
68654;BME280;55636;51.108;13.622;2022-08-01T03:36:55;100044.63;;;21.18;47.91
68654;BME280;55636;51.108;13.622;2022-08-01T03:38:02;100040.97;;;21.18;48.34
68654;BME280;55636;51.108;13.622;2022-08-01T03:39:22;100040.50;;;21.16;48.09
68654;BME280;55636;51.108;13.622;2022-08-01T03:40:31;100050.59;;;21.17;48.17
68654;BME280;55636;51.108;13.622;2022-08-01T03:41:39;100045.28;;;21.15;48.17
68654;BME280;55636;51.108;13.622;2022-08-01T03:42:47;100047.28;;;21.15;48.24
68654;BME280;55636;51.108;13.622;2022-08-01T03:44:17;100042.00;;;21.13;47.61
68654;BME280;55636;51.108;13.622;2022-08-01T03:45:24;100042.81;;;21.14;48.21
68654;BME280;55636;51.108;13.622;2022-08-01T03:46:35;100052.44;;;21.13;48.11
68654;BME280;55636;51.108;13.622;2022-08-01T03:47:42;100051.59;;;21.12;47.88
68654;BME280;55636;51.108;13.622;2022-08-01T03:48:48;100053.59;;;21.12;48.00
68654;BME280;55636;51.108;13.622;2022-08-01T03:49:54;100044.31;;;21.11;48.21
68654;BME280;55636;51.108;13.622;2022-08-01T03:50:58;100046.31;;;21.11;47.83
68654;BME280;55636;51.108;13.622;2022-08-01T03:52:09;100054.75;;;21.11;48.09
68654;BME280;55636;51.108;13.622;2022-08-01T03:53:13;100055.91;;;21.10;48.01
68654;BME280;55636;51.108;13.622;2022-08-01T03:54:21;100052.28;;;21.09;48.07
68654;BME280;55636;51.108;13.622;2022-08-01T03:55:26;100055.09;;;21.09;48.13
68654;BME280;55636;51.108;13.622;2022-08-01T03:56:29;100054.25;;;21.08;47.90
68654;BME280;55636;51.108;13.622;2022-08-01T03:57:34;100051.44;;;21.08;47.83
68654;BME280;55636;51.108;13.622;2022-08-01T03:58:41;100053.44;;;21.08;47.83
68654;BME280;55636;51.108;13.622;2022-08-01T03:59:44;100047.00;;;21.07;48.02
68654;BME280;55636;51.108;13.622;2022-08-01T04:00:47;100050.97;;;21.06;48.05
68654;BME280;55636;51.108;13.622;2022-08-01T04:01:50;100058.25;;;21.07;47.77
68654;BME280;55636;51.108;13.622;2022-08-01T04:02:53;100049.81;;;21.07;48.03
68654;BME280;55636;51.108;13.622;2022-08-01T04:03:55;100055.44;;;21.07;48.05
68654;BME280;55636;51.108;13.622;2022-08-01T04:04:58;100057.41;;;21.07;47.93
68654;BME280;55636;51.108;13.622;2022-08-01T04:06:04;100053.78;;;21.06;48.09
68654;BME280;55636;51.108;13.622;2022-08-01T04:07:22;100054.59;;;21.07;47.73
68654;BME280;55636;51.108;13.622;2022-08-01T04:08:39;100059.41;;;21.06;48.07
68654;BME280;55636;51.108;13.622;2022-08-01T04:09:42;100060.56;;;21.05;48.10
68654;BME280;55636;51.108;13.622;2022-08-01T04:10:44;100057.75;;;21.05;48.27
68654;BME280;55636;51.108;13.622;2022-08-01T04:11:47;100057.75;;;21.05;48.38
68654;BME280;55636;51.108;13.622;2022-08-01T04:12:50;100064.19;;;21.06;48.26
68654;BME280;55636;51.108;13.622;2022-08-01T04:13:54;100054.94;;;21.05;48.22
68654;BME280;55636;51.108;13.622;2022-08-01T04:14:56;100065.34;;;21.05;48.26
68654;BME280;55636;51.108;13.622;2022-08-01T04:15:59;100062.88;;;21.03;48.44
68654;BME280;55636;51.108;13.622;2022-08-01T04:17:01;100068.16;;;21.05;48.28
68654;BME280;55636;51.108;13.622;2022-08-01T04:18:03;100068.47;;;21.03;48.56
68654;BME280;55636;51.108;13.622;2022-08-01T04:19:06;100064.88;;;21.03;48.28
68654;BME280;55636;51.108;13.622;2022-08-01T04:20:10;100075.75;;;21.04;48.53
68654;BME280;55636;51.108;13.622;2022-08-01T04:21:13;100069.31;;;21.04;48.88
68654;BME280;55636;51.108;13.622;2022-08-01T04:22:16;100068.16;;;21.05;48.75
68654;BME280;55636;51.108;13.622;2022-08-01T04:23:23;100076.91;;;21.03;49.06
68654;BME280;55636;51.108;13.622;2022-08-01T04:24:26;100060.91;;;21.04;48.84
68654;BME280;55636;51.108;13.622;2022-08-01T04:25:33;100064.50;;;21.04;48.96
68654;BME280;55636;51.108;13.622;2022-08-01T04:26:37;100070.97;;;21.05;49.01
68654;BME280;55636;51.108;13.622;2022-08-01T04:27:46;100070.63;;;21.06;49.05
68654;BME280;55636;51.108;13.622;2022-08-01T04:28:53;100081.03;;;21.06;48.69
68654;BME280;55636;51.108;13.622;2022-08-01T04:29:58;100084.66;;;21.06;48.63
68654;BME280;55636;51.108;13.622;2022-08-01T04:31:02;100084.66;;;21.06;48.78
68654;BME280;55636;51.108;13.622;2022-08-01T04:32:09;100086.31;;;21.07;48.96
68654;BME280;55636;51.108;13.622;2022-08-01T04:33:14;100084.31;;;21.08;48.89
68654;BME280;55636;51.108;13.622;2022-08-01T04:34:21;100085.97;;;21.09;48.47
68654;BME280;55636;51.108;13.622;2022-08-01T04:35:28;100085.63;;;21.11;48.50
68654;BME280;55636;51.108;13.622;2022-08-01T04:36:54;100080.03;;;21.11;48.55
68654;BME280;55636;51.108;13.622;2022-08-01T04:37:58;100087.28;;;21.12;48.42
68654;BME280;55636;51.108;13.622;2022-08-01T04:39:02;100090.09;;;21.12;48.54
68654;BME280;55636;51.108;13.622;2022-08-01T04:40:08;100094.22;;;21.14;48.60
68654;BME280;55636;51.108;13.622;2022-08-01T04:41:12;100091.06;;;21.16;48.67
68654;BME280;55636;51.108;13.622;2022-08-01T04:42:18;100079.81;;;21.16;48.78
68654;BME280;55636;51.108;13.622;2022-08-01T04:43:31;100086.25;;;21.16;48.61
68654;BME280;55636;51.108;13.622;2022-08-01T04:44:36;100095.53;;;21.17;48.51
68654;BME280;55636;51.108;13.622;2022-08-01T04:45:39;100087.56;;;21.19;48.71
68654;BME280;55636;51.108;13.622;2022-08-01T04:46:42;100088.72;;;21.18;48.89
68654;BME280;55636;51.108;13.622;2022-08-01T04:47:45;100100.78;;;21.18;48.56
68654;BME280;55636;51.108;13.622;2022-08-01T04:48:50;100095.63;;;21.20;48.81
68654;BME280;55636;51.108;13.622;2022-08-01T04:49:53;100093.66;;;21.21;48.77
68654;BME280;55636;51.108;13.622;2022-08-01T04:50:55;100098.94;;;21.22;48.42
68654;BME280;55636;51.108;13.622;2022-08-01T04:51:58;100088.53;;;21.23;48.27
68654;BME280;55636;51.108;13.622;2022-08-01T04:53:04;100092.16;;;21.23;48.67
68654;BME280;55636;51.108;13.622;2022-08-01T04:54:07;100094.63;;;21.25;48.47
68654;BME280;55636;51.108;13.622;2022-08-01T04:55:09;100094.63;;;21.25;48.58
68654;BME280;55636;51.108;13.622;2022-08-01T04:56:12;100099.44;;;21.24;48.27
68654;BME280;55636;51.108;13.622;2022-08-01T04:57:15;100095.44;;;21.25;48.50
68654;BME280;55636;51.108;13.622;2022-08-01T04:58:17;100103.56;;;21.27;48.43
68654;BME280;55636;51.108;13.622;2022-08-01T04:59:20;100100.75;;;21.27;48.73
68654;BME280;55636;51.108;13.622;2022-08-01T05:00:41;100105.53;;;21.27;48.50
68654;BME280;55636;51.108;13.622;2022-08-01T05:01:48;100102.38;;;21.28;48.45
68654;BME280;55636;51.108;13.622;2022-08-01T05:02:50;100107.16;;;21.28;48.51
68654;BME280;55636;51.108;13.622;2022-08-01T05:03:53;100107.16;;;21.28;48.51
68654;BME280;55636;51.108;13.622;2022-08-01T05:04:55;100101.22;;;21.29;48.49
68654;BME280;55636;51.108;13.622;2022-08-01T05:05:59;100106.84;;;21.29;48.80
68654;BME280;55636;51.108;13.622;2022-08-01T05:07:01;100104.03;;;21.29;48.83
68654;BME280;55636;51.108;13.622;2022-08-01T05:08:04;100106.47;;;21.31;48.70
68654;BME280;55636;51.108;13.622;2022-08-01T05:09:08;100104.50;;;21.31;48.98
68654;BME280;55636;51.108;13.622;2022-08-01T05:10:10;100101.72;;;21.31;48.84
68654;BME280;55636;51.108;13.622;2022-08-01T05:11:12;100104.50;;;21.31;49.04
68654;BME280;55636;51.108;13.622;2022-08-01T05:12:15;100104.50;;;21.31;48.81
68654;BME280;55636;51.108;13.622;2022-08-01T05:13:19;100104.16;;;21.33;49.04
68654;BME280;55636;51.108;13.622;2022-08-01T05:14:22;100102.16;;;21.33;49.14
68654;BME280;55636;51.108;13.622;2022-08-01T05:15:24;100106.63;;;21.34;49.30
68654;BME280;55636;51.108;13.622;2022-08-01T05:16:27;100102.66;;;21.35;49.48
68654;BME280;55636;51.108;13.622;2022-08-01T05:17:29;100107.94;;;21.37;49.22
68654;BME280;55636;51.108;13.622;2022-08-01T05:18:31;100110.75;;;21.37;49.40
68654;BME280;55636;51.108;13.622;2022-08-01T05:19:35;100103.13;;;21.37;49.56
68654;BME280;55636;51.108;13.622;2022-08-01T05:20:37;100113.22;;;21.38;49.66
68654;BME280;55636;51.108;13.622;2022-08-01T05:21:39;100110.06;;;21.40;49.77
68654;BME280;55636;51.108;13.622;2022-08-01T05:22:42;100108.09;;;21.40;50.05
68654;BME280;55636;51.108;13.622;2022-08-01T05:23:44;100116.97;;;21.42;49.69
68654;BME280;55636;51.108;13.622;2022-08-01T05:24:46;100113.03;;;21.44;50.04
68654;BME280;55636;51.108;13.622;2022-08-01T05:25:50;100116.34;;;21.46;50.11
68654;BME280;55636;51.108;13.622;2022-08-01T05:26:59;100107.56;;;21.47;50.09
68654;BME280;55636;51.108;13.622;2022-08-01T05:28:04;100111.69;;;21.50;50.03
68654;BME280;55636;51.108;13.622;2022-08-01T05:29:06;100109.38;;;21.52;49.89
68654;BME280;55636;51.108;13.622;2022-08-01T05:30:09;100110.69;;;21.54;50.09
68654;BME280;55636;51.108;13.622;2022-08-01T05:31:12;100115.13;;;21.55;50.32
68654;BME280;55636;51.108;13.622;2022-08-01T05:32:14;100108.84;;;21.59;50.49
68654;BME280;55636;51.108;13.622;2022-08-01T05:33:16;100104.03;;;21.59;50.48
68654;BME280;55636;51.108;13.622;2022-08-01T05:34:19;100105.81;;;21.64;50.20
68654;BME280;55636;51.108;13.622;2022-08-01T05:35:21;100107.44;;;21.65;50.48
68654;BME280;55636;51.108;13.622;2022-08-01T05:36:45;100101.97;;;21.68;50.26
68654;BME280;55636;51.108;13.622;2022-08-01T05:37:47;100111.69;;;21.71;50.18
68654;BME280;55636;51.108;13.622;2022-08-01T05:38:49;100110.19;;;21.73;50.42
68654;BME280;55636;51.108;13.622;2022-08-01T05:39:51;100108.69;;;21.76;50.25
68654;BME280;55636;51.108;13.622;2022-08-01T05:40:53;100113.63;;;21.79;50.41
68654;BME280;55636;51.108;13.622;2022-08-01T05:41:56;100112.44;;;21.80;50.32
68654;BME280;55636;51.108;13.622;2022-08-01T05:42:58;100114.59;;;21.83;50.32
68654;BME280;55636;51.108;13.622;2022-08-01T05:44:03;100108.28;;;21.86;50.30
68654;BME280;55636;51.108;13.622;2022-08-01T05:45:06;100103.94;;;21.89;50.20
68654;BME280;55636;51.108;13.622;2022-08-01T05:46:09;100108.06;;;21.92;50.29
68654;BME280;55636;51.108;13.622;2022-08-01T05:47:11;100105.38;;;21.95;50.00